sensor_id;sensor_type;location;lat;lon;timestamp;temperature;humidity
59771;DHT22;45649;53.014;6.600;2023-05-02T00:00:41;12.20;99.90
59771;DHT22;45649;53.014;6.600;2023-05-02T00:03:07;12.10;99.90
59771;DHT22;45649;53.014;6.600;2023-05-02T00:05:33;12.10;99.90
59771;DHT22;45649;53.014;6.600;2023-05-02T00:07:59;12.10;99.90
59771;DHT22;45649;53.014;6.600;2023-05-02T00:10:25;12.00;99.90
59771;DHT22;45649;53.014;6.600;2023-05-02T00:12:51;11.90;99.90
59771;DHT22;45649;53.014;6.600;2023-05-02T00:15:16;11.90;99.90
59771;DHT22;45649;53.014;6.600;2023-05-02T00:17:42;11.90;99.90
59771;DHT22;45649;53.014;6.600;2023-05-02T00:20:11;11.80;99.90
59771;DHT22;45649;53.014;6.600;2023-05-02T00:22:38;11.80;99.90
59771;DHT22;45649;53.014;6.600;2023-05-02T00:25:04;11.70;99.90
59771;DHT22;45649;53.014;6.600;2023-05-02T00:27:30;11.60;99.90
59771;DHT22;45649;53.014;6.600;2023-05-02T00:29:56;11.60;99.90
59771;DHT22;45649;53.014;6.600;2023-05-02T00:32:24;11.50;99.90
59771;DHT22;45649;53.014;6.600;2023-05-02T00:34:49;11.50;99.90
59771;DHT22;45649;53.014;6.600;2023-05-02T00:37:15;11.50;99.90
59771;DHT22;45649;53.014;6.600;2023-05-02T00:39:41;11.50;99.90
59771;DHT22;45649;53.014;6.600;2023-05-02T00:42:06;11.40;99.90
59771;DHT22;45649;53.014;6.600;2023-05-02T00:44:32;11.30;99.90
59771;DHT22;45649;53.014;6.600;2023-05-02T00:47:00;11.30;99.90
59771;DHT22;45649;53.014;6.600;2023-05-02T00:49:26;11.30;99.90
59771;DHT22;45649;53.014;6.600;2023-05-02T00:51:53;11.40;99.90
59771;DHT22;45649;53.014;6.600;2023-05-02T00:54:19;11.30;99.90
59771;DHT22;45649;53.014;6.600;2023-05-02T00:56:44;11.30;99.90
59771;DHT22;45649;53.014;6.600;2023-05-02T00:59:11;11.30;99.90
59771;DHT22;45649;53.014;6.600;2023-05-02T01:02:04;11.30;99.90
59771;DHT22;45649;53.014;6.600;2023-05-02T01:04:59;11.40;99.90
59771;DHT22;45649;53.014;6.600;2023-05-02T01:13:12;11.40;99.90
59771;DHT22;45649;53.014;6.600;2023-05-02T01:15:42;11.40;99.90
59771;DHT22;45649;53.014;6.600;2023-05-02T01:18:11;11.30;99.90
59771;DHT22;45649;53.014;6.600;2023-05-02T01:20:41;11.40;99.90
59771;DHT22;45649;53.014;6.600;2023-05-02T01:23:34;11.40;99.90
59771;DHT22;45649;53.014;6.600;2023-05-02T01:26:09;11.40;99.90
59771;DHT22;45649;53.014;6.600;2023-05-02T01:29:10;11.40;99.90
59771;DHT22;45649;53.014;6.600;2023-05-02T01:31:39;11.40;99.90
59771;DHT22;45649;53.014;6.600;2023-05-02T01:34:08;11.40;99.90
59771;DHT22;45649;53.014;6.600;2023-05-02T01:36:35;11.40;99.90
59771;DHT22;45649;53.014;6.600;2023-05-02T01:39:03;11.40;99.90
59771;DHT22;45649;53.014;6.600;2023-05-02T01:41:33;11.40;99.90
59771;DHT22;45649;53.014;6.600;2023-05-02T01:44:01;11.50;99.90
59771;DHT22;45649;53.014;6.600;2023-05-02T01:46:31;11.50;99.90
59771;DHT22;45649;53.014;6.600;2023-05-02T01:49:04;11.40;99.90
59771;DHT22;45649;53.014;6.600;2023-05-02T01:51:32;11.40;99.90
59771;DHT22;45649;53.014;6.600;2023-05-02T01:54:02;11.40;99.90
59771;DHT22;45649;53.014;6.600;2023-05-02T01:56:34;11.40;99.90
59771;DHT22;45649;53.014;6.600;2023-05-02T01:59:07;11.40;99.90
59771;DHT22;45649;53.014;6.600;2023-05-02T02:04:10;11.20;99.90
59771;DHT22;45649;53.014;6.600;2023-05-02T02:06:36;11.20;99.90
59771;DHT22;45649;53.014;6.600;2023-05-02T02:09:02;11.10;99.90
59771;DHT22;45649;53.014;6.600;2023-05-02T02:11:45;11.10;99.90
59771;DHT22;45649;53.014;6.600;2023-05-02T02:14:19;11.00;99.90
59771;DHT22;45649;53.014;6.600;2023-05-02T02:16:45;11.00;99.90
59771;DHT22;45649;53.014;6.600;2023-05-02T02:19:13;10.70;99.90
59771;DHT22;45649;53.014;6.600;2023-05-02T02:21:42;10.50;99.90
59771;DHT22;45649;53.014;6.600;2023-05-02T02:24:08;10.40;99.90
59771;DHT22;45649;53.014;6.600;2023-05-02T02:26:35;10.40;99.90
59771;DHT22;45649;53.014;6.600;2023-05-02T02:29:02;10.20;99.90
59771;DHT22;45649;53.014;6.600;2023-05-02T02:31:33;10.20;99.90
59771;DHT22;45649;53.014;6.600;2023-05-02T02:34:00;10.10;99.90
59771;DHT22;45649;53.014;6.600;2023-05-02T02:36:45;10.10;99.90
59771;DHT22;45649;53.014;6.600;2023-05-02T02:47:43;10.20;99.90
59771;DHT22;45649;53.014;6.600;2023-05-02T02:55:39;10.20;99.90
59771;DHT22;45649;53.014;6.600;2023-05-02T03:00:52;10.10;99.90
59771;DHT22;45649;53.014;6.600;2023-05-02T03:03:20;10.10;99.90
59771;DHT22;45649;53.014;6.600;2023-05-02T03:05:47;10.10;99.90
59771;DHT22;45649;53.014;6.600;2023-05-02T03:08:13;10.10;99.90
59771;DHT22;45649;53.014;6.600;2023-05-02T03:10:39;10.10;99.90
59771;DHT22;45649;53.014;6.600;2023-05-02T03:13:05;9.90;99.90
59771;DHT22;45649;53.014;6.600;2023-05-02T03:18:24;9.80;99.90
59771;DHT22;45649;53.014;6.600;2023-05-02T03:20:50;9.70;99.90
59771;DHT22;45649;53.014;6.600;2023-05-02T03:23:16;9.70;99.90
59771;DHT22;45649;53.014;6.600;2023-05-02T03:25:42;9.70;99.90
59771;DHT22;45649;53.014;6.600;2023-05-02T03:28:08;9.70;99.90
59771;DHT22;45649;53.014;6.600;2023-05-02T03:30:33;9.70;99.90
59771;DHT22;45649;53.014;6.600;2023-05-02T03:32:59;9.70;99.90
59771;DHT22;45649;53.014;6.600;2023-05-02T03:35:26;9.50;99.90
59771;DHT22;45649;53.014;6.600;2023-05-02T03:37:52;9.40;99.90
59771;DHT22;45649;53.014;6.600;2023-05-02T03:40:18;9.40;99.90
59771;DHT22;45649;53.014;6.600;2023-05-02T03:42:46;9.40;99.90
59771;DHT22;45649;53.014;6.600;2023-05-02T03:45:11;9.40;99.90
59771;DHT22;45649;53.014;6.600;2023-05-02T03:47:37;9.30;99.90
59771;DHT22;45649;53.014;6.600;2023-05-02T03:50:03;9.30;99.40
59771;DHT22;45649;53.014;6.600;2023-05-02T03:52:29;9.30;99.70
59771;DHT22;45649;53.014;6.600;2023-05-02T03:54:56;9.30;99.90
59771;DHT22;45649;53.014;6.600;2023-05-02T03:57:21;9.20;98.90
59771;DHT22;45649;53.014;6.600;2023-05-02T03:59:47;9.10;99.70
59771;DHT22;45649;53.014;6.600;2023-05-02T04:02:13;9.20;99.70
59771;DHT22;45649;53.014;6.600;2023-05-02T04:04:39;9.20;99.50
59771;DHT22;45649;53.014;6.600;2023-05-02T04:07:05;9.20;99.60
59771;DHT22;45649;53.014;6.600;2023-05-02T04:09:40;9.20;99.40
59771;DHT22;45649;53.014;6.600;2023-05-02T04:12:05;9.20;98.50
59771;DHT22;45649;53.014;6.600;2023-05-02T04:14:31;9.00;98.30
59771;DHT22;45649;53.014;6.600;2023-05-02T04:16:57;9.10;98.00
59771;DHT22;45649;53.014;6.600;2023-05-02T04:19:22;9.20;98.30
59771;DHT22;45649;53.014;6.600;2023-05-02T04:21:48;9.10;97.90
59771;DHT22;45649;53.014;6.600;2023-05-02T04:24:14;9.10;97.60
59771;DHT22;45649;53.014;6.600;2023-05-02T04:26:39;9.10;97.10
59771;DHT22;45649;53.014;6.600;2023-05-02T04:29:06;9.00;96.50
59771;DHT22;45649;53.014;6.600;2023-05-02T04:31:32;9.00;95.90
59771;DHT22;45649;53.014;6.600;2023-05-02T04:33:57;9.00;96.40
59771;DHT22;45649;53.014;6.600;2023-05-02T04:36:24;9.00;96.30
59771;DHT22;45649;53.014;6.600;2023-05-02T04:38:50;9.00;96.20
59771;DHT22;45649;53.014;6.600;2023-05-02T04:41:16;9.00;95.90
59771;DHT22;45649;53.014;6.600;2023-05-02T04:43:43;9.00;92.50
59771;DHT22;45649;53.014;6.600;2023-05-02T04:46:09;9.10;91.90
59771;DHT22;45649;53.014;6.600;2023-05-02T04:48:35;9.10;91.20
59771;DHT22;45649;53.014;6.600;2023-05-02T04:51:00;9.10;90.20
59771;DHT22;45649;53.014;6.600;2023-05-02T04:53:26;9.10;89.70
59771;DHT22;45649;53.014;6.600;2023-05-02T04:55:52;9.00;87.60
59771;DHT22;45649;53.014;6.600;2023-05-02T04:58:18;9.00;88.20
59771;DHT22;45649;53.014;6.600;2023-05-02T05:00:43;9.00;87.40
59771;DHT22;45649;53.014;6.600;2023-05-02T05:03:09;9.00;86.70
59771;DHT22;45649;53.014;6.600;2023-05-02T05:05:35;9.00;86.60
59771;DHT22;45649;53.014;6.600;2023-05-02T05:08:01;8.90;85.90
59771;DHT22;45649;53.014;6.600;2023-05-02T05:10:26;8.90;84.80
59771;DHT22;45649;53.014;6.600;2023-05-02T05:12:52;9.00;84.30
59771;DHT22;45649;53.014;6.600;2023-05-02T05:15:18;9.00;83.70
59771;DHT22;45649;53.014;6.600;2023-05-02T05:17:47;8.90;80.50
59771;DHT22;45649;53.014;6.600;2023-05-02T05:20:12;9.10;78.50
59771;DHT22;45649;53.014;6.600;2023-05-02T05:22:39;9.00;79.40
59771;DHT22;45649;53.014;6.600;2023-05-02T05:25:09;9.00;79.10
59771;DHT22;45649;53.014;6.600;2023-05-02T05:27:35;9.00;78.80
59771;DHT22;45649;53.014;6.600;2023-05-02T05:30:03;9.00;79.80
59771;DHT22;45649;53.014;6.600;2023-05-02T05:32:28;8.90;80.30
59771;DHT22;45649;53.014;6.600;2023-05-02T05:34:54;9.00;79.90
59771;DHT22;45649;53.014;6.600;2023-05-02T05:37:20;9.00;79.50
59771;DHT22;45649;53.014;6.600;2023-05-02T05:39:46;9.00;79.60
59771;DHT22;45649;53.014;6.600;2023-05-02T05:42:14;9.00;79.50
59771;DHT22;45649;53.014;6.600;2023-05-02T05:44:41;9.10;80.10
59771;DHT22;45649;53.014;6.600;2023-05-02T05:47:07;9.10;81.70
59771;DHT22;45649;53.014;6.600;2023-05-02T05:49:32;9.10;80.20
59771;DHT22;45649;53.014;6.600;2023-05-02T05:52:00;9.10;79.70
59771;DHT22;45649;53.014;6.600;2023-05-02T05:54:27;9.10;80.40
59771;DHT22;45649;53.014;6.600;2023-05-02T05:56:52;9.10;80.60
59771;DHT22;45649;53.014;6.600;2023-05-02T05:59:18;9.10;80.50
59771;DHT22;45649;53.014;6.600;2023-05-02T06:01:44;9.10;80.60
59771;DHT22;45649;53.014;6.600;2023-05-02T06:04:10;9.00;80.50
59771;DHT22;45649;53.014;6.600;2023-05-02T06:06:36;9.00;80.60
59771;DHT22;45649;53.014;6.600;2023-05-02T06:09:02;9.10;80.60
59771;DHT22;45649;53.014;6.600;2023-05-02T06:11:28;9.10;80.60
59771;DHT22;45649;53.014;6.600;2023-05-02T06:13:54;9.10;80.80
59771;DHT22;45649;53.014;6.600;2023-05-02T06:16:20;9.00;80.50
59771;DHT22;45649;53.014;6.600;2023-05-02T06:18:46;9.00;79.00
59771;DHT22;45649;53.014;6.600;2023-05-02T06:21:12;9.00;77.80
59771;DHT22;45649;53.014;6.600;2023-05-02T06:23:38;9.10;78.20
59771;DHT22;45649;53.014;6.600;2023-05-02T06:26:04;9.00;78.40
59771;DHT22;45649;53.014;6.600;2023-05-02T06:28:30;9.10;77.10
59771;DHT22;45649;53.014;6.600;2023-05-02T06:31:00;9.10;78.10
59771;DHT22;45649;53.014;6.600;2023-05-02T06:33:31;9.10;77.40
59771;DHT22;45649;53.014;6.600;2023-05-02T06:35:57;9.10;77.40
59771;DHT22;45649;53.014;6.600;2023-05-02T06:38:23;9.10;77.90
59771;DHT22;45649;53.014;6.600;2023-05-02T06:40:50;9.20;78.00
59771;DHT22;45649;53.014;6.600;2023-05-02T06:43:16;9.20;77.70
59771;DHT22;45649;53.014;6.600;2023-05-02T06:45:43;9.20;78.50
59771;DHT22;45649;53.014;6.600;2023-05-02T06:48:09;9.20;77.50
59771;DHT22;45649;53.014;6.600;2023-05-02T06:50:35;9.30;77.80
59771;DHT22;45649;53.014;6.600;2023-05-02T06:53:00;9.30;77.70
59771;DHT22;45649;53.014;6.600;2023-05-02T06:55:26;9.30;77.50
59771;DHT22;45649;53.014;6.600;2023-05-02T06:57:53;9.30;77.10
59771;DHT22;45649;53.014;6.600;2023-05-02T07:00:19;9.30;76.40
59771;DHT22;45649;53.014;6.600;2023-05-02T07:02:46;9.20;74.60
59771;DHT22;45649;53.014;6.600;2023-05-02T07:05:13;9.20;74.40
59771;DHT22;45649;53.014;6.600;2023-05-02T07:07:40;9.20;72.30
59771;DHT22;45649;53.014;6.600;2023-05-02T07:10:07;8.90;70.60
59771;DHT22;45649;53.014;6.600;2023-05-02T07:12:33;9.00;71.10
59771;DHT22;45649;53.014;6.600;2023-05-02T07:14:59;9.00;71.40
59771;DHT22;45649;53.014;6.600;2023-05-02T07:17:25;9.10;70.50
59771;DHT22;45649;53.014;6.600;2023-05-02T07:19:51;9.00;69.00
59771;DHT22;45649;53.014;6.600;2023-05-02T07:22:17;9.00;70.10
59771;DHT22;45649;53.014;6.600;2023-05-02T07:24:43;9.00;68.60
59771;DHT22;45649;53.014;6.600;2023-05-02T07:27:10;9.00;69.30
59771;DHT22;45649;53.014;6.600;2023-05-02T07:29:36;9.00;68.30
59771;DHT22;45649;53.014;6.600;2023-05-02T07:32:02;9.00;66.80
59771;DHT22;45649;53.014;6.600;2023-05-02T07:34:28;9.00;66.30
59771;DHT22;45649;53.014;6.600;2023-05-02T07:36:54;9.10;66.90
59771;DHT22;45649;53.014;6.600;2023-05-02T07:39:21;9.10;67.20
59771;DHT22;45649;53.014;6.600;2023-05-02T07:41:52;9.10;67.20
59771;DHT22;45649;53.014;6.600;2023-05-02T07:44:18;9.20;67.40
59771;DHT22;45649;53.014;6.600;2023-05-02T07:46:44;9.20;65.60
59771;DHT22;45649;53.014;6.600;2023-05-02T07:49:10;9.20;65.50
59771;DHT22;45649;53.014;6.600;2023-05-02T07:51:35;9.20;63.40
59771;DHT22;45649;53.014;6.600;2023-05-02T07:54:02;9.30;64.30
59771;DHT22;45649;53.014;6.600;2023-05-02T07:56:28;9.30;63.10
59771;DHT22;45649;53.014;6.600;2023-05-02T07:58:54;9.40;62.50
59771;DHT22;45649;53.014;6.600;2023-05-02T08:01:20;9.40;62.90
59771;DHT22;45649;53.014;6.600;2023-05-02T08:03:46;9.40;62.90
59771;DHT22;45649;53.014;6.600;2023-05-02T08:06:12;9.40;64.80
59771;DHT22;45649;53.014;6.600;2023-05-02T08:08:38;9.40;64.20
59771;DHT22;45649;53.014;6.600;2023-05-02T08:11:04;9.50;63.80
59771;DHT22;45649;53.014;6.600;2023-05-02T08:13:30;9.40;63.40
59771;DHT22;45649;53.014;6.600;2023-05-02T08:15:56;9.40;64.10
59771;DHT22;45649;53.014;6.600;2023-05-02T08:18:26;9.40;63.90
59771;DHT22;45649;53.014;6.600;2023-05-02T08:20:55;9.50;64.60
59771;DHT22;45649;53.014;6.600;2023-05-02T08:23:23;9.50;63.50
59771;DHT22;45649;53.014;6.600;2023-05-02T08:25:48;9.60;64.30
59771;DHT22;45649;53.014;6.600;2023-05-02T08:28:14;9.70;64.10
59771;DHT22;45649;53.014;6.600;2023-05-02T08:30:40;9.70;64.20
59771;DHT22;45649;53.014;6.600;2023-05-02T08:33:06;9.80;64.70
59771;DHT22;45649;53.014;6.600;2023-05-02T08:35:32;9.90;63.90
59771;DHT22;45649;53.014;6.600;2023-05-02T08:37:57;9.90;64.90
59771;DHT22;45649;53.014;6.600;2023-05-02T08:40:24;9.90;64.20
59771;DHT22;45649;53.014;6.600;2023-05-02T08:42:51;9.80;64.20
59771;DHT22;45649;53.014;6.600;2023-05-02T08:45:18;9.70;65.10
59771;DHT22;45649;53.014;6.600;2023-05-02T08:47:44;9.70;65.90
59771;DHT22;45649;53.014;6.600;2023-05-02T08:50:11;9.70;66.80
59771;DHT22;45649;53.014;6.600;2023-05-02T08:52:38;9.70;67.10
59771;DHT22;45649;53.014;6.600;2023-05-02T08:55:05;9.70;66.70
59771;DHT22;45649;53.014;6.600;2023-05-02T08:57:32;9.70;67.30
59771;DHT22;45649;53.014;6.600;2023-05-02T08:59:58;9.70;67.30
59771;DHT22;45649;53.014;6.600;2023-05-02T09:05:26;9.70;65.20
59771;DHT22;45649;53.014;6.600;2023-05-02T09:07:52;9.70;65.70
59771;DHT22;45649;53.014;6.600;2023-05-02T09:10:18;9.80;66.10
59771;DHT22;45649;53.014;6.600;2023-05-02T09:12:44;9.80;65.80
59771;DHT22;45649;53.014;6.600;2023-05-02T09:15:14;10.00;66.30
59771;DHT22;45649;53.014;6.600;2023-05-02T09:17:45;10.10;65.20
59771;DHT22;45649;53.014;6.600;2023-05-02T09:20:13;10.10;62.50
59771;DHT22;45649;53.014;6.600;2023-05-02T09:22:47;10.10;62.30
59771;DHT22;45649;53.014;6.600;2023-05-02T09:25:14;10.20;61.90
59771;DHT22;45649;53.014;6.600;2023-05-02T09:27:54;10.20;61.00
59771;DHT22;45649;53.014;6.600;2023-05-02T09:30:24;10.20;59.20
59771;DHT22;45649;53.014;6.600;2023-05-02T09:32:52;10.20;60.40
59771;DHT22;45649;53.014;6.600;2023-05-02T09:35:20;10.40;62.40
59771;DHT22;45649;53.014;6.600;2023-05-02T09:37:55;10.40;62.60
59771;DHT22;45649;53.014;6.600;2023-05-02T09:40:21;10.50;62.70
59771;DHT22;45649;53.014;6.600;2023-05-02T09:42:47;10.50;62.80
59771;DHT22;45649;53.014;6.600;2023-05-02T09:45:24;10.50;62.50
59771;DHT22;45649;53.014;6.600;2023-05-02T09:47:51;10.60;62.50
59771;DHT22;45649;53.014;6.600;2023-05-02T09:53:02;10.60;62.80
59771;DHT22;45649;53.014;6.600;2023-05-02T09:55:28;10.50;62.30
59771;DHT22;45649;53.014;6.600;2023-05-02T09:57:54;10.50;62.60
59771;DHT22;45649;53.014;6.600;2023-05-02T10:00:20;10.60;63.10
59771;DHT22;45649;53.014;6.600;2023-05-02T10:02:48;10.60;62.90
59771;DHT22;45649;53.014;6.600;2023-05-02T10:05:16;10.60;63.20
59771;DHT22;45649;53.014;6.600;2023-05-02T10:07:45;10.50;62.30
59771;DHT22;45649;53.014;6.600;2023-05-02T10:10:15;10.60;61.20
59771;DHT22;45649;53.014;6.600;2023-05-02T10:12:41;10.50;62.00
59771;DHT22;45649;53.014;6.600;2023-05-02T10:15:08;10.40;63.20
59771;DHT22;45649;53.014;6.600;2023-05-02T10:17:39;10.50;63.70
59771;DHT22;45649;53.014;6.600;2023-05-02T10:20:07;10.50;63.50
59771;DHT22;45649;53.014;6.600;2023-05-02T10:22:35;10.60;63.90
59771;DHT22;45649;53.014;6.600;2023-05-02T10:25:02;10.70;63.80
59771;DHT22;45649;53.014;6.600;2023-05-02T10:27:29;10.70;62.40
59771;DHT22;45649;53.014;6.600;2023-05-02T10:29:58;10.70;62.50
59771;DHT22;45649;53.014;6.600;2023-05-02T10:32:26;10.60;62.60
59771;DHT22;45649;53.014;6.600;2023-05-02T10:34:56;10.70;62.80
59771;DHT22;45649;53.014;6.600;2023-05-02T10:37:23;10.80;63.10
59771;DHT22;45649;53.014;6.600;2023-05-02T10:39:50;10.90;64.20
59771;DHT22;45649;53.014;6.600;2023-05-02T10:42:16;10.90;63.00
59771;DHT22;45649;53.014;6.600;2023-05-02T10:44:43;10.90;63.20
59771;DHT22;45649;53.014;6.600;2023-05-02T10:47:23;10.90;62.00
59771;DHT22;45649;53.014;6.600;2023-05-02T10:49:55;10.80;61.10
59771;DHT22;45649;53.014;6.600;2023-05-02T11:00:29;10.80;60.00
59771;DHT22;45649;53.014;6.600;2023-05-02T11:02:55;10.80;62.10
59771;DHT22;45649;53.014;6.600;2023-05-02T11:05:21;10.60;63.80
59771;DHT22;45649;53.014;6.600;2023-05-02T11:07:47;10.50;64.40
59771;DHT22;45649;53.014;6.600;2023-05-02T11:18:12;10.80;63.70
59771;DHT22;45649;53.014;6.600;2023-05-02T11:20:47;10.80;64.60
59771;DHT22;45649;53.014;6.600;2023-05-02T11:25:41;10.90;64.10
59771;DHT22;45649;53.014;6.600;2023-05-02T11:30:53;10.90;63.30
59771;DHT22;45649;53.014;6.600;2023-05-02T11:33:19;10.90;63.30
59771;DHT22;45649;53.014;6.600;2023-05-02T11:35:46;10.90;63.10
59771;DHT22;45649;53.014;6.600;2023-05-02T11:38:14;10.90;63.60
59771;DHT22;45649;53.014;6.600;2023-05-02T11:40:46;10.90;64.60
59771;DHT22;45649;53.014;6.600;2023-05-02T11:43:17;11.00;64.60
59771;DHT22;45649;53.014;6.600;2023-05-02T11:45:43;10.90;67.80
59771;DHT22;45649;53.014;6.600;2023-05-02T11:48:11;10.90;68.50
59771;DHT22;45649;53.014;6.600;2023-05-02T11:53:15;10.60;68.90
59771;DHT22;45649;53.014;6.600;2023-05-02T11:55:52;10.60;69.10
59771;DHT22;45649;53.014;6.600;2023-05-02T11:58:29;10.60;69.10
59771;DHT22;45649;53.014;6.600;2023-05-02T12:00:57;10.60;69.20
59771;DHT22;45649;53.014;6.600;2023-05-02T12:05:51;10.80;69.80
59771;DHT22;45649;53.014;6.600;2023-05-02T12:08:23;10.80;67.40
59771;DHT22;45649;53.014;6.600;2023-05-02T12:10:53;10.80;67.30
59771;DHT22;45649;53.014;6.600;2023-05-02T12:13:21;10.70;68.50
59771;DHT22;45649;53.014;6.600;2023-05-02T12:15:48;10.70;69.40
59771;DHT22;45649;53.014;6.600;2023-05-02T12:18:15;10.70;69.90
59771;DHT22;45649;53.014;6.600;2023-05-02T12:20:42;10.70;70.40
59771;DHT22;45649;53.014;6.600;2023-05-02T12:23:08;10.80;69.10
59771;DHT22;45649;53.014;6.600;2023-05-02T12:25:38;10.80;68.80
59771;DHT22;45649;53.014;6.600;2023-05-02T12:28:04;10.90;68.00
59771;DHT22;45649;53.014;6.600;2023-05-02T12:30:30;11.00;67.10
59771;DHT22;45649;53.014;6.600;2023-05-02T12:32:58;11.10;65.30
59771;DHT22;45649;53.014;6.600;2023-05-02T12:35:26;11.10;64.40
59771;DHT22;45649;53.014;6.600;2023-05-02T12:37:52;11.10;63.50
59771;DHT22;45649;53.014;6.600;2023-05-02T12:40:19;11.10;63.70
59771;DHT22;45649;53.014;6.600;2023-05-02T12:43:01;11.10;63.30
59771;DHT22;45649;53.014;6.600;2023-05-02T12:45:32;11.00;64.80
59771;DHT22;45649;53.014;6.600;2023-05-02T12:48:02;10.90;64.80
59771;DHT22;45649;53.014;6.600;2023-05-02T12:50:41;10.90;64.10
59771;DHT22;45649;53.014;6.600;2023-05-02T12:53:07;11.00;64.00
59771;DHT22;45649;53.014;6.600;2023-05-02T12:55:33;11.00;65.00
59771;DHT22;45649;53.014;6.600;2023-05-02T12:58:06;11.10;65.60
59771;DHT22;45649;53.014;6.600;2023-05-02T13:00:37;11.20;65.20
59771;DHT22;45649;53.014;6.600;2023-05-02T13:03:04;11.20;64.90
59771;DHT22;45649;53.014;6.600;2023-05-02T13:05:30;11.20;65.30
59771;DHT22;45649;53.014;6.600;2023-05-02T13:07:57;11.20;64.10
59771;DHT22;45649;53.014;6.600;2023-05-02T13:10:26;11.20;64.70
59771;DHT22;45649;53.014;6.600;2023-05-02T13:12:53;11.20;64.90
59771;DHT22;45649;53.014;6.600;2023-05-02T13:15:19;11.20;65.10
59771;DHT22;45649;53.014;6.600;2023-05-02T13:17:45;11.20;65.40
59771;DHT22;45649;53.014;6.600;2023-05-02T13:20:11;11.20;65.50
59771;DHT22;45649;53.014;6.600;2023-05-02T13:22:37;11.20;63.50
59771;DHT22;45649;53.014;6.600;2023-05-02T13:25:06;11.20;63.00
59771;DHT22;45649;53.014;6.600;2023-05-02T13:27:33;11.10;62.40
59771;DHT22;45649;53.014;6.600;2023-05-02T13:30:02;11.20;62.50
59771;DHT22;45649;53.014;6.600;2023-05-02T13:32:28;11.20;62.00
59771;DHT22;45649;53.014;6.600;2023-05-02T13:34:54;11.30;61.20
59771;DHT22;45649;53.014;6.600;2023-05-02T13:37:20;11.30;61.20
59771;DHT22;45649;53.014;6.600;2023-05-02T13:39:45;11.40;60.20
59771;DHT22;45649;53.014;6.600;2023-05-02T13:42:11;11.40;61.10
59771;DHT22;45649;53.014;6.600;2023-05-02T13:44:37;11.40;60.90
59771;DHT22;45649;53.014;6.600;2023-05-02T13:47:03;11.40;59.80
59771;DHT22;45649;53.014;6.600;2023-05-02T13:49:28;11.50;59.50
59771;DHT22;45649;53.014;6.600;2023-05-02T13:51:55;11.50;59.70
59771;DHT22;45649;53.014;6.600;2023-05-02T13:54:21;11.50;64.30
59771;DHT22;45649;53.014;6.600;2023-05-02T13:56:46;11.40;66.60
59771;DHT22;45649;53.014;6.600;2023-05-02T13:59:12;11.40;67.80
59771;DHT22;45649;53.014;6.600;2023-05-02T14:01:38;11.30;68.00
59771;DHT22;45649;53.014;6.600;2023-05-02T14:04:05;11.30;68.70
59771;DHT22;45649;53.014;6.600;2023-05-02T14:06:34;11.30;68.70
59771;DHT22;45649;53.014;6.600;2023-05-02T14:09:00;11.30;68.90
59771;DHT22;45649;53.014;6.600;2023-05-02T14:11:25;11.10;68.10
59771;DHT22;45649;53.014;6.600;2023-05-02T14:13:51;11.10;67.40
59771;DHT22;45649;53.014;6.600;2023-05-02T14:16:18;11.10;67.00
59771;DHT22;45649;53.014;6.600;2023-05-02T14:18:44;11.20;66.80
59771;DHT22;45649;53.014;6.600;2023-05-02T14:21:15;11.30;65.60
59771;DHT22;45649;53.014;6.600;2023-05-02T14:23:40;11.30;65.20
59771;DHT22;45649;53.014;6.600;2023-05-02T14:26:06;11.40;66.20
59771;DHT22;45649;53.014;6.600;2023-05-02T14:28:32;11.40;64.40
59771;DHT22;45649;53.014;6.600;2023-05-02T14:31:00;11.40;65.10
59771;DHT22;45649;53.014;6.600;2023-05-02T14:33:25;11.50;66.20
59771;DHT22;45649;53.014;6.600;2023-05-02T14:35:51;11.40;67.70
59771;DHT22;45649;53.014;6.600;2023-05-02T14:38:17;11.50;67.30
59771;DHT22;45649;53.014;6.600;2023-05-02T14:40:43;11.60;66.80
59771;DHT22;45649;53.014;6.600;2023-05-02T14:43:08;11.60;64.60
59771;DHT22;45649;53.014;6.600;2023-05-02T14:45:36;11.60;64.40
59771;DHT22;45649;53.014;6.600;2023-05-02T14:48:02;11.40;63.10
59771;DHT22;45649;53.014;6.600;2023-05-02T14:50:28;11.40;62.80
59771;DHT22;45649;53.014;6.600;2023-05-02T14:52:54;11.40;62.10
59771;DHT22;45649;53.014;6.600;2023-05-02T14:55:19;11.40;62.90
59771;DHT22;45649;53.014;6.600;2023-05-02T14:57:45;11.40;62.50
59771;DHT22;45649;53.014;6.600;2023-05-02T15:00:12;11.50;62.10
59771;DHT22;45649;53.014;6.600;2023-05-02T15:02:38;11.40;61.70
59771;DHT22;45649;53.014;6.600;2023-05-02T15:05:04;11.40;61.70
59771;DHT22;45649;53.014;6.600;2023-05-02T15:07:32;11.40;62.00
59771;DHT22;45649;53.014;6.600;2023-05-02T15:09:58;11.40;61.20
59771;DHT22;45649;53.014;6.600;2023-05-02T15:12:23;11.40;61.40
59771;DHT22;45649;53.014;6.600;2023-05-02T15:14:50;11.40;61.50
59771;DHT22;45649;53.014;6.600;2023-05-02T15:17:16;11.30;61.60
59771;DHT22;45649;53.014;6.600;2023-05-02T15:19:42;11.20;62.00
59771;DHT22;45649;53.014;6.600;2023-05-02T15:22:08;11.20;63.00
59771;DHT22;45649;53.014;6.600;2023-05-02T15:24:34;11.20;64.30
59771;DHT22;45649;53.014;6.600;2023-05-02T15:26:59;11.10;64.30
59771;DHT22;45649;53.014;6.600;2023-05-02T15:29:26;11.00;64.50
59771;DHT22;45649;53.014;6.600;2023-05-02T15:31:52;11.00;64.80
59771;DHT22;45649;53.014;6.600;2023-05-02T15:34:19;11.10;64.60
59771;DHT22;45649;53.014;6.600;2023-05-02T15:36:45;11.00;65.40
59771;DHT22;45649;53.014;6.600;2023-05-02T15:39:11;10.90;65.50
59771;DHT22;45649;53.014;6.600;2023-05-02T15:41:39;10.90;66.40
59771;DHT22;45649;53.014;6.600;2023-05-02T15:44:06;10.90;67.60
59771;DHT22;45649;53.014;6.600;2023-05-02T15:46:32;10.90;68.70
59771;DHT22;45649;53.014;6.600;2023-05-02T15:48:57;10.80;69.50
59771;DHT22;45649;53.014;6.600;2023-05-02T15:51:24;10.80;69.90
59771;DHT22;45649;53.014;6.600;2023-05-02T15:53:49;10.70;70.50
59771;DHT22;45649;53.014;6.600;2023-05-02T15:56:16;10.60;70.10
59771;DHT22;45649;53.014;6.600;2023-05-02T15:58:43;10.40;70.30
59771;DHT22;45649;53.014;6.600;2023-05-02T16:01:11;10.40;70.00
59771;DHT22;45649;53.014;6.600;2023-05-02T16:03:37;10.40;69.90
59771;DHT22;45649;53.014;6.600;2023-05-02T16:06:02;10.50;69.50
59771;DHT22;45649;53.014;6.600;2023-05-02T16:08:30;10.40;68.20
59771;DHT22;45649;53.014;6.600;2023-05-02T16:10:56;10.50;68.60
59771;DHT22;45649;53.014;6.600;2023-05-02T16:13:25;10.60;68.90
59771;DHT22;45649;53.014;6.600;2023-05-02T16:15:50;10.60;68.00
59771;DHT22;45649;53.014;6.600;2023-05-02T16:18:20;10.70;68.60
59771;DHT22;45649;53.014;6.600;2023-05-02T16:20:47;10.80;68.10
59771;DHT22;45649;53.014;6.600;2023-05-02T16:23:14;10.80;67.60
59771;DHT22;45649;53.014;6.600;2023-05-02T16:25:40;10.70;67.70
59771;DHT22;45649;53.014;6.600;2023-05-02T16:28:06;10.80;68.30
59771;DHT22;45649;53.014;6.600;2023-05-02T16:30:35;10.70;68.30
59771;DHT22;45649;53.014;6.600;2023-05-02T16:33:01;10.80;67.00
59771;DHT22;45649;53.014;6.600;2023-05-02T16:35:28;10.60;66.40
59771;DHT22;45649;53.014;6.600;2023-05-02T16:37:54;10.70;67.00